Weather at Shayrat Air Base

Public forecast

Using degrees Celsius for public forecast. Weather courtesy of forecast.io.

Closest aviation weather report (METAR) to Shayrat Air Base

Closest report is Damascus International Airport, 67.7 nm (125.3 km) SSW.

2024/03/03 09:00 (retrieved 7 minutes ago)

OSDI 030900Z 35010KT 9999 FEW026 SCT030 17/04 Q1013

Closest aviation forecast (TAF) to Shayrat Air Base

Forecast is more than 12 hours old.

Closest forecast is Damascus International Airport, 67.7 nm (125.3 km) SSW.

2024/03/02 06:00 (retrieved 1 day ago)

TAF OSDI 020500Z 0206/0312 05008KT CAVOK BECMG 0212/0214 23020KT 8000 FEW030